Weather at Nanga Labang Airstrip

Public forecast

Using degrees Celsius for public forecast. Weather courtesy of forecast.io.

Closest aviation weather report (METAR) to Nanga Labang Airstrip

Closest report is Simanggang Airport, 60.7 nm (112.5 km) N.

(retrieved 0 seconds ago)

Closest aviation forecast (TAF) to Nanga Labang Airstrip

Closest forecast is Kuching International Airport, 108.6 nm (201.1 km) NW.

2024/06/14 06:09 (retrieved 6 hours ago)

TAF WBGG 140500Z 1406/1506 VRB03KT 9999 FEW018 TEMPO 1408/1412 12010KT 5000 TSRA FEW015CB SCT018